Time;durP1;ratioP1;P1;durP2;ratioP2;P2;SDS_P1;SDS_P2;PMS_P1;PMS_P2;Temp;Humidity;BMP_temperature;BMP_pressure;BME280_temperature;BME280_humidity;BME280_pressure;Samples;Min_cycle;Max_cycle;Signal;HPM_P1;HPM_P2
2022/02/10 01:11:26;;;;;;;5.97;2.27;;;11.00;99.90;;;;;;5017517;28;20198;-93
2022/02/10 01:13:59;;;;;;;5.90;2.70;;;11.00;99.90;;;;;;5020472;28;20230;-94
2022/02/10 01:30:14;;;;;;;9.23;2.90;;;11.00;99.90;;;;;;5018231;28;20213;-95
2022/02/10 01:32:49;;;;;;;3.43;2.13;;;10.90;99.90;;;;;;5024133;28;20205;-95
2022/02/10 02:05:23;;;;;;;5.97;2.17;;;10.50;99.90;;;;;;5013165;28;20570;-94
2022/02/10 02:07:55;;;;;;;3.67;2.30;;;10.50;99.90;;;;;;5008984;28;20266;-94
2022/02/10 02:10:26;;;;;;;3.43;2.00;;;10.50;99.90;;;;;;5020525;28;20202;-94
2022/02/10 02:12:57;;;;;;;2.93;2.13;;;10.40;99.90;;;;;;5016828;28;20213;-93
2022/02/10 02:15:32;;;;;;;5.83;2.43;;;10.40;99.90;;;;;;4999950;28;20397;-94
2022/02/10 02:20:39;;;;;;;4.03;2.43;;;10.30;99.90;;;;;;5074929;23;20248;-93
2022/02/10 02:23:12;;;;;;;4.90;2.40;;;10.30;99.90;;;;;;5038951;28;20193;-94
2022/02/10 02:25:48;;;;;;;6.60;3.13;;;10.30;99.90;;;;;;5036037;28;20252;-94
2022/02/10 02:28:22;;;;;;;6.83;2.70;;;10.30;99.90;;;;;;5766210;23;20260;-91
2022/02/10 02:30:58;;;;;;;4.07;2.80;;;10.30;99.90;;;;;;5015240;28;20254;-91
2022/02/10 02:39:30;;;;;;;3.17;2.23;;;10.40;99.90;;;;;;5014790;28;20217;-94
2022/02/10 03:04:53;;;;;;;4.47;2.37;;;10.40;99.90;;;;;;5011427;28;20226;-94
2022/02/10 03:07:35;;;;;;;4.47;2.67;;;10.40;99.90;;;;;;5013022;28;20206;-95
2022/02/10 03:10:25;;;;;;;5.23;2.80;;;10.40;99.90;;;;;;5013470;28;20269;-94
2022/02/10 03:13:02;;;;;;;4.00;2.30;;;10.50;99.90;;;;;;5011325;28;20198;-92
2022/02/10 03:15:40;;;;;;;4.77;2.43;;;10.50;99.90;;;;;;5014960;28;20202;-93
2022/02/10 03:18:20;;;;;;;4.87;2.70;;;10.40;99.90;;;;;;5012229;28;20224;-93
2022/02/10 04:16:06;;;;;;;6.10;3.73;;;10.30;99.90;;;;;;5046000;28;20232;-94
2022/02/10 04:21:38;;;;;;;7.97;3.10;;;10.30;99.90;;;;;;5055225;28;20231;-94
2022/02/10 04:27:00;;;;;;;5.67;2.67;;;10.30;99.90;;;;;;5177766;23;20240;-95
2022/02/10 04:37:19;;;;;;;4.77;2.73;;;10.30;99.90;;;;;;5034006;28;20209;-93
2022/02/10 04:58:21;;;;;;;6.73;3.10;;;10.20;99.90;;;;;;5027139;28;20201;-95
2022/02/10 05:04:15;;;;;;;7.27;3.13;;;10.20;99.90;;;;;;5045437;28;20193;-94
2022/02/10 05:07:07;;;;;;;4.03;2.83;;;10.20;99.90;;;;;;5042584;28;20258;-95
2022/02/10 05:32:52;;;;;;;4.60;3.40;;;10.00;99.90;;;;;;5053136;28;20657;-94
2022/02/10 05:35:28;;;;;;;5.17;3.27;;;9.90;99.90;;;;;;5051477;28;20197;-94
2022/02/10 05:38:15;;;;;;;4.43;3.17;;;9.90;99.90;;;;;;5054672;28;20265;-94
2022/02/10 05:46:18;;;;;;;8.00;3.47;;;9.60;99.90;;;;;;5874255;22;20234;-93
2022/02/10 05:57:30;;;;;;;7.67;4.00;;;9.00;99.90;;;;;;5011075;28;20222;-95
2022/02/10 06:53:49;;;;;;;6.80;4.33;;;7.40;99.90;;;;;;5036506;28;20631;-94
2022/02/10 07:10:57;;;;;;;7.30;4.87;;;7.20;99.90;;;;;;4994923;28;20210;-94
2022/02/10 07:14:02;;;;;;;6.10;4.23;;;7.10;99.90;;;;;;5005411;28;20233;-94
2022/02/10 07:17:06;;;;;;;8.00;4.37;;;7.10;99.90;;;;;;5010549;28;20202;-94
2022/02/10 07:48:01;;;;;;;7.83;4.63;;;6.70;99.90;;;;;;5011319;28;20213;-94
2022/02/10 07:53:53;;;;;;;6.47;4.27;;;6.70;99.90;;;;;;4995963;28;20229;-93
2022/02/10 07:59:40;;;;;;;7.77;4.17;;;6.70;99.90;;;;;;4996089;28;20233;-93
2022/02/10 08:50:41;;;;;;;7.50;5.27;;;6.80;99.90;;;;;;5003195;28;20213;-93
2022/02/10 08:56:10;;;;;;;9.07;5.23;;;6.80;99.90;;;;;;5004208;28;20241;-93
2022/02/10 08:58:59;;;;;;;8.00;5.47;;;6.80;99.90;;;;;;5016207;28;20242;-93
2022/02/10 09:01:47;;;;;;;7.93;5.47;;;6.80;99.90;;;;;;5016870;28;20202;-92
2022/02/10 09:04:28;;;;;;;9.27;5.43;;;6.80;99.90;;;;;;5002585;28;20210;-94
2022/02/10 09:07:27;;;;;;;9.00;6.23;;;6.80;99.90;;;;;;5003386;28;20702;-94
2022/02/10 09:10:16;;;;;;;10.37;6.60;;;6.90;99.90;;;;;;5002691;28;20275;-94
2022/02/10 09:13:14;;;;;;;10.37;6.10;;;6.90;99.90;;;;;;4997719;28;20238;-95
2022/02/10 09:18:59;;;;;;;9.43;6.13;;;6.90;99.90;;;;;;4963033;28;20211;-92
2022/02/10 09:22:01;;;;;;;9.70;6.70;;;6.90;99.90;;;;;;5002630;28;20206;-94
2022/02/10 09:55:54;;;;;;;9.27;7.07;;;7.40;99.90;;;;;;4997787;28;20258;-93
2022/02/10 09:58:38;;;;;;;9.80;6.90;;;7.40;99.90;;;;;;5003822;28;20206;-93
2022/02/10 10:01:24;;;;;;;11.00;7.33;;;7.40;99.90;;;;;;5003301;28;20217;-93
2022/02/10 10:04:07;;;;;;;12.37;7.40;;;7.50;99.90;;;;;;5004032;28;20611;-94
2022/02/10 10:07:02;;;;;;;8.37;7.20;;;7.60;99.90;;;;;;5002672;28;20272;-95
2022/02/10 10:09:48;;;;;;;15.20;7.83;;;7.60;99.90;;;;;;5005713;28;20281;-94
2022/02/10 10:12:44;;;;;;;12.57;8.00;;;7.50;99.90;;;;;;5013445;28;20214;-95
2022/02/10 10:15:39;;;;;;;14.93;8.47;;;7.40;99.90;;;;;;5017757;28;20225;-94
2022/02/10 10:21:19;;;;;;;12.30;8.00;;;7.60;99.90;;;;;;5009219;28;20190;-93
2022/02/10 10:24:10;;;;;;;14.20;8.97;;;7.60;99.90;;;;;;5015756;28;20203;-94
2022/02/10 10:57:58;;;;;;;18.23;9.60;;;7.70;99.90;;;;;;4992434;28;20218;-93
2022/02/10 11:01:06;;;;;;;19.60;11.27;;;7.80;99.90;;;;;;5003937;28;20217;-92
2022/02/10 11:03:43;;;;;;;20.83;10.53;;;7.80;99.90;;;;;;5013761;28;20202;-93
2022/02/10 11:38:21;;;;;;;21.13;10.70;;;7.60;99.90;;;;;;4998871;28;20229;-94
2022/02/10 11:41:28;;;;;;;26.30;10.57;;;7.60;99.90;;;;;;5000185;28;20224;-95
2022/02/10 11:47:39;;;;;;;27.40;11.47;;;7.60;99.90;;;;;;4995728;28;20206;-94
2022/02/10 12:37:18;;;;;;;22.50;8.63;;;7.60;99.90;;;;;;4979811;28;20198;-94
2022/02/10 13:23:48;;;;;;;14.37;9.47;;;7.50;99.90;;;;;;5024252;28;20198;-93
2022/02/10 14:09:48;;;;;;;11.00;6.87;;;7.60;99.90;;;;;;5010730;28;20237;-95
2022/02/10 14:15:15;;;;;;;11.03;6.87;;;7.60;99.90;;;;;;4989974;28;20264;-93
2022/02/10 14:18:02;;;;;;;12.27;7.73;;;7.60;99.90;;;;;;5001130;28;20242;-95
2022/02/10 14:20:50;;;;;;;10.93;7.27;;;7.60;99.90;;;;;;5000695;28;20237;-94
2022/02/10 14:25:40;;;;;;;13.87;8.13;;;7.60;99.90;;;;;;5000255;28;20264;-94
2022/02/10 14:26:32;;;;;;;13.83;8.97;;;7.60;99.90;;;;;;5010877;28;20260;-94
2022/02/10 14:29:03;;;;;;;11.63;8.40;;;7.60;99.90;;;;;;5000993;28;20639;-94
2022/02/10 14:31:34;;;;;;;12.57;8.03;;;7.60;99.90;;;;;;5009530;28;20195;-95
2022/02/10 14:34:23;;;;;;;9.37;6.63;;;7.60;99.90;;;;;;5003250;28;20276;-94
2022/02/10 14:37:12;;;;;;;10.47;6.93;;;7.70;99.90;;;;;;4986216;28;20613;-94
2022/02/10 15:11:31;;;;;;;8.03;5.97;;;7.70;99.90;;;;;;5000411;28;20207;-94
2022/02/10 16:19:08;;;;;;;6.97;5.77;;;7.80;99.90;;;;;;4998463;28;20608;-94
2022/02/10 16:21:43;;;;;;;6.30;5.10;;;7.80;99.90;;;;;;4997412;28;20221;-94
2022/02/10 16:24:27;;;;;;;5.17;4.67;;;7.90;99.90;;;;;;5011694;28;20499;-94
2022/02/10 16:27:01;;;;;;;5.10;4.37;;;7.80;99.90;;;;;;4997357;28;20292;-93
2022/02/10 16:29:33;;;;;;;4.87;4.10;;;7.90;99.90;;;;;;4999039;28;20293;-94
2022/02/10 16:32:05;;;;;;;5.20;3.93;;;7.90;99.90;;;;;;4998228;28;20206;-93
2022/02/10 16:34:43;;;;;;;7.00;4.50;;;7.90;99.90;;;;;;4988889;28;20276;-93
2022/02/10 16:37:14;;;;;;;7.33;5.00;;;8.00;99.90;;;;;;4977905;28;20253;-94
2022/02/10 16:39:52;;;;;;;5.20;4.17;;;7.90;99.90;;;;;;4986671;28;20758;-94
2022/02/10 16:42:24;;;;;;;5.90;4.67;;;8.00;99.90;;;;;;4989496;28;20211;-94
2022/02/10 16:45:00;;;;;;;5.40;4.30;;;8.00;99.90;;;;;;4997448;28;20261;-95
2022/02/10 16:47:33;;;;;;;5.93;4.00;;;8.00;99.90;;;;;;5031377;28;20214;-93
2022/02/10 16:50:06;;;;;;;4.77;4.07;;;8.10;99.90;;;;;;5032730;28;20217;-95
2022/02/10 16:52:46;;;;;;;4.97;3.63;;;8.10;99.90;;;;;;5030549;28;20229;-92
2022/02/10 16:55:37;;;;;;;5.90;3.97;;;8.10;99.90;;;;;;5031930;28;20254;-94
2022/02/10 16:58:19;;;;;;;5.77;4.47;;;8.10;99.90;;;;;;5031209;28;20202;-94
2022/02/10 17:28:10;;;;;;;3.90;2.83;;;8.50;99.90;;;;;;5293534;23;21102;-89
2022/02/10 17:33:50;;;;;;;3.30;3.00;;;8.30;99.90;;;;;;4982286;28;20553;-94
2022/02/10 17:36:32;;;;;;;3.17;2.87;;;8.40;99.90;;;;;;5013906;28;20702;-94
2022/02/10 17:44:55;;;;;;;4.03;3.10;;;8.60;99.90;;;;;;5006936;28;20206;-94
2022/02/10 17:53:05;;;;;;;3.27;2.70;;;9.00;99.90;;;;;;5037258;28;20281;-95
2022/02/10 17:55:37;;;;;;;2.80;2.40;;;9.00;99.90;;;;;;5009326;28;20229;-95
2022/02/10 17:58:08;;;;;;;2.90;2.37;;;9.10;99.90;;;;;;5013027;28;20241;-94
2022/02/10 18:00:46;;;;;;;2.77;2.40;;;9.00;99.90;;;;;;5014574;28;20210;-94
2022/02/10 18:03:17;;;;;;;2.40;2.10;;;8.90;99.90;;;;;;5010739;28;20190;-93
2022/02/10 18:08:36;;;;;;;2.10;1.90;;;8.80;99.90;;;;;;5014484;28;20217;-92
2022/02/10 18:14:06;;;;;;;2.27;2.07;;;8.90;99.90;;;;;;4972324;28;20190;-93
2022/02/10 18:16:45;;;;;;;2.73;2.53;;;8.90;99.90;;;;;;5014300;28;20216;-95
2022/02/10 18:19:22;;;;;;;3.43;3.00;;;8.80;99.90;;;;;;5014746;28;20206;-94
2022/02/10 18:25:08;;;;;;;6.77;3.17;;;8.80;99.90;;;;;;4952272;29;20212;-94
2022/02/10 18:27:46;;;;;;;3.63;3.17;;;8.70;99.90;;;;;;4953047;29;20236;-94
2022/02/10 19:20:31;;;;;;;5.97;4.80;;;8.70;99.90;;;;;;6160565;22;3333570;-95
2022/02/10 19:23:04;;;;;;;6.30;4.90;;;8.80;99.90;;;;;;6311054;22;20170;-93
2022/02/10 19:25:38;;;;;;;7.23;5.20;;;8.80;99.90;;;;;;6306410;22;20167;-94
2022/02/10 19:28:11;;;;;;;6.80;5.77;;;8.70;99.90;;;;;;6304158;22;20205;-93
2022/02/10 19:30:43;;;;;;;7.13;5.80;;;8.80;99.90;;;;;;6292271;22;20197;-94
2022/02/10 19:33:15;;;;;;;8.07;5.83;;;8.90;99.90;;;;;;6299310;22;20178;-95
2022/02/10 19:35:52;;;;;;;5.83;5.30;;;8.90;99.90;;;;;;6308550;22;20221;-94
2022/02/10 19:38:28;;;;;;;6.23;4.97;;;8.90;99.90;;;;;;6307448;22;20166;-93
2022/02/10 19:41:00;;;;;;;6.17;5.47;;;8.90;99.90;;;;;;6312856;22;20212;-93
2022/02/10 19:43:52;;;;;;;6.97;5.60;;;8.90;99.90;;;;;;6313024;22;20177;-94
2022/02/10 19:46:25;;;;;;;9.00;6.60;;;9.00;99.90;;;;;;6311680;22;20223;-94
2022/02/10 19:48:56;;;;;;;7.27;6.33;;;8.90;99.90;;;;;;6312131;22;20198;-93
2022/02/10 19:51:30;;;;;;;8.50;6.57;;;8.80;99.90;;;;;;6312498;22;20165;-94
2022/02/10 19:56:38;;;;;;;6.83;5.93;;;8.80;99.90;;;;;;6218105;22;20212;-96
2022/02/10 20:01:56;;;;;;;10.17;6.57;;;8.70;99.90;;;;;;6298636;22;20209;-94
2022/02/10 20:07:06;;;;;;;10.93;7.30;;;9.00;99.90;;;;;;6259597;22;20210;-95
2022/02/10 20:09:36;;;;;;;8.50;6.70;;;8.90;99.90;;;;;;6267122;22;20202;-95
2022/02/10 20:12:08;;;;;;;9.50;7.33;;;9.00;99.90;;;;;;6273383;22;20252;-93
2022/02/10 20:14:40;;;;;;;9.53;7.30;;;9.00;99.90;;;;;;6265263;23;20505;-94
2022/02/10 20:17:12;;;;;;;10.03;8.03;;;9.10;99.90;;;;;;6265561;23;20172;-94
2022/02/10 20:19:44;;;;;;;9.03;7.53;;;9.10;99.90;;;;;;6268565;23;20187;-94
2022/02/10 20:22:17;;;;;;;10.13;8.17;;;9.10;99.90;;;;;;6269801;23;20223;-94
2022/02/10 20:24:49;;;;;;;9.70;8.13;;;9.00;99.90;;;;;;6270504;22;20168;-94
2022/02/10 20:27:21;;;;;;;8.73;7.47;;;9.00;99.90;;;;;;6271622;23;20163;-92
2022/02/10 20:29:53;;;;;;;9.97;7.90;;;9.00;99.90;;;;;;6269004;22;20291;-94
2022/02/10 20:32:24;;;;;;;10.07;7.27;;;9.10;99.90;;;;;;6268221;22;20176;-94
2022/02/10 20:34:56;;;;;;;8.70;7.03;;;9.20;99.90;;;;;;6270606;22;20180;-95
2022/02/10 20:37:29;;;;;;;11.60;8.43;;;9.30;99.90;;;;;;6268572;23;20176;-94
2022/02/10 20:40:03;;;;;;;10.03;8.07;;;9.40;99.90;;;;;;6269893;22;20152;-95
2022/02/10 20:42:35;;;;;;;9.10;7.70;;;9.40;99.90;;;;;;6268502;22;20172;-94
2022/02/10 20:45:07;;;;;;;10.17;7.47;;;9.30;99.90;;;;;;6267237;22;20171;-93
2022/02/10 20:47:39;;;;;;;10.67;8.70;;;9.20;99.90;;;;;;6267377;22;20176;-94
2022/02/10 20:50:13;;;;;;;12.73;9.83;;;9.20;99.90;;;;;;6266599;22;20195;-93
2022/02/10 20:52:46;;;;;;;12.93;9.80;;;9.20;99.90;;;;;;6267102;23;20180;-94
2022/02/10 20:55:17;;;;;;;12.13;9.67;;;9.20;99.90;;;;;;6268807;22;20160;-93
2022/02/10 20:57:48;;;;;;;10.93;8.60;;;9.20;99.90;;;;;;6267532;22;20172;-94
2022/02/10 21:00:20;;;;;;;10.93;8.80;;;9.20;99.90;;;;;;6264867;22;20191;-94
2022/02/10 21:02:52;;;;;;;10.60;8.73;;;9.20;99.90;;;;;;6268010;22;20449;-95
2022/02/10 21:05:30;;;;;;;9.07;7.47;;;9.20;99.90;;;;;;6265962;23;20213;-94
2022/02/10 21:08:11;;;;;;;9.17;6.70;;;9.30;99.90;;;;;;6233281;22;20200;-94
2022/02/10 21:10:43;;;;;;;8.20;6.50;;;9.20;99.90;;;;;;6208404;23;20197;-94
2022/02/10 21:13:15;;;;;;;7.67;6.60;;;9.20;99.90;;;;;;6206123;23;20172;-94
2022/02/10 21:15:47;;;;;;;8.20;7.00;;;9.20;99.90;;;;;;6206618;23;20169;-94
2022/02/10 21:18:22;;;;;;;7.13;6.03;;;9.10;99.90;;;;;;6205131;23;20234;-95
2022/02/10 21:20:58;;;;;;;8.67;6.90;;;9.20;99.90;;;;;;6183924;23;20185;-93
2022/02/10 21:23:34;;;;;;;7.20;6.07;;;9.30;99.90;;;;;;6181099;23;20184;-95
2022/02/10 21:26:07;;;;;;;10.30;7.47;;;9.30;99.90;;;;;;6207068;23;20627;-94
2022/02/10 21:28:41;;;;;;;8.30;7.40;;;9.30;99.90;;;;;;6181155;23;20169;-95
2022/02/10 21:31:13;;;;;;;8.97;6.77;;;9.40;99.90;;;;;;6213237;23;20157;-94
2022/02/10 21:33:53;;;;;;;9.63;7.03;;;9.40;99.90;;;;;;6213439;23;20181;-94
2022/02/10 21:39:18;;;;;;;7.83;6.90;;;9.30;99.90;;;;;;6208458;22;20195;-93
2022/02/10 21:47:44;;;;;;;8.00;6.37;;;9.30;99.90;;;;;;6205722;23;20212;-94
2022/02/10 22:18:33;;;;;;;5.57;4.60;;;9.90;99.90;;;;;;6234200;22;3354610;-94
2022/02/10 22:21:06;;;;;;;5.50;4.37;;;10.10;99.90;;;;;;6336072;22;20481;-95
2022/02/10 22:23:42;;;;;;;5.43;4.13;;;10.10;99.90;;;;;;6335682;22;20166;-93
2022/02/10 22:26:23;;;;;;;4.50;4.10;;;9.90;99.90;;;;;;6333776;22;20272;-94
2022/02/10 22:29:00;;;;;;;5.17;4.37;;;10.10;99.90;;;;;;6326199;22;20476;-93
2022/02/10 22:31:42;;;;;;;7.17;5.07;;;10.20;99.90;;;;;;6334896;22;20174;-94
2022/02/10 22:34:25;;;;;;;4.47;4.07;;;10.20;99.90;;;;;;6335930;22;20166;-93
2022/02/10 22:36:59;;;;;;;5.73;3.90;;;10.20;99.90;;;;;;6333497;22;20173;-94
2022/02/10 22:39:35;;;;;;;3.83;3.27;;;10.20;99.90;;;;;;6336934;22;20165;-94
2022/02/10 22:42:08;;;;;;;4.43;3.40;;;10.20;99.90;;;;;;6334426;22;20174;-94
2022/02/10 22:44:43;;;;;;;3.47;3.17;;;10.20;99.90;;;;;;6334909;22;20163;-95
2022/02/10 22:47:14;;;;;;;6.03;3.60;;;10.20;99.90;;;;;;6335676;22;20197;-93
2022/02/10 22:49:47;;;;;;;5.97;4.20;;;10.20;99.90;;;;;;6310976;22;20208;-95
2022/02/10 22:52:21;;;;;;;5.83;4.10;;;10.20;99.90;;;;;;6335726;22;20169;-94
2022/02/10 22:54:52;;;;;;;4.87;4.13;;;10.10;99.90;;;;;;6333671;22;20174;-95
2022/02/10 22:57:23;;;;;;;5.20;4.27;;;10.10;99.90;;;;;;6335438;22;20170;-96
2022/02/10 22:59:58;;;;;;;5.03;4.43;;;10.10;99.90;;;;;;6309220;22;20163;-94
2022/02/10 23:02:30;;;;;;;5.53;5.00;;;9.90;99.90;;;;;;6332722;22;20166;-95
2022/02/10 23:05:03;;;;;;;7.33;4.27;;;9.80;99.90;;;;;;6339167;22;20163;-93
2022/02/10 23:07:34;;;;;;;4.93;3.57;;;9.80;99.90;;;;;;6310195;22;20217;-94
2022/02/10 23:10:38;;;;;;;3.20;2.90;;;10.00;99.90;;;;;;6334622;22;20174;-94
2022/02/10 23:13:09;;;;;;;3.20;2.90;;;9.80;99.90;;;;;;6334963;22;20186;-95
2022/02/10 23:15:40;;;;;;;5.10;3.03;;;9.90;99.90;;;;;;6335181;22;20173;-95
2022/02/10 23:18:14;;;;;;;3.07;2.83;;;9.70;99.90;;;;;;6330334;22;20182;-94
2022/02/10 23:20:49;;;;;;;3.93;3.00;;;9.70;99.90;;;;;;6301089;22;20167;-94
2022/02/10 23:23:22;;;;;;;3.33;3.03;;;9.70;99.90;;;;;;6327349;22;20197;-93
2022/02/10 23:25:55;;;;;;;3.90;3.00;;;9.70;99.90;;;;;;6301371;22;20163;-93
2022/02/10 23:28:30;;;;;;;4.33;3.23;;;9.70;99.90;;;;;;6328378;22;20190;-96
2022/02/10 23:31:06;;;;;;;3.40;3.00;;;9.70;99.90;;;;;;6277928;22;20220;-94
2022/02/10 23:33:40;;;;;;;6.93;2.97;;;9.60;99.90;;;;;;6328706;22;20167;-94
2022/02/10 23:42:00;;;;;;;3.43;3.07;;;9.50;99.90;;;;;;6281269;22;20521;-94
2022/02/10 23:44:35;;;;;;;3.47;3.03;;;9.40;99.90;;;;;;6330626;22;20162;-94
2022/02/10 23:47:08;;;;;;;3.27;2.97;;;9.40;99.90;;;;;;6336194;22;20192;-95
2022/02/10 23:49:40;;;;;;;3.53;3.20;;;9.40;99.90;;;;;;6336395;22;20185;-92
2022/02/10 23:52:16;;;;;;;3.27;2.97;;;9.40;99.90;;;;;;6336099;22;20174;-95
2022/02/10 23:54:57;;;;;;;3.73;3.40;;;9.50;99.90;;;;;;6335961;22;20178;-94
